• Join FlightAware (Why Join?)
  • Login
  • US Flag 
01:47PM EDT


 

Airport Tracker/Info


-or-


 

Live Flight TrackerFlight Track Log ✈ SKW5564 ✈ 17-Aug-2014 ✈ KPHX - KSFO

Flight Track Log - Related Links

Times and Time Zones

All times are in EDT time to prevent confusion due to time zone crossing. See the SKW5564 flight status page for this flight to view local times or setup timezone preferences in your user account.

Time Position Orientation Groundspeed Altitude Reporting Facility
EDT Latitude Longitude Course Direction KTS MPH feet Rate Location/Type
09:32PM 33.4333 -111.9833 90° East 146 168 1,700  Level Phoenix TRACON
09:33PM 33.4333 -111.9333 90° East 180 207 3,500 1,980 Climbing Phoenix TRACON
09:34PM 33.4167 -111.8667 107° East 239 275 5,300 1,680 Climbing Phoenix TRACON
09:35PM 33.3994 -111.8161 112° Southeast 242 278 6,400 1,680 Climbing Albuquerque Center
09:36PM 33.3331 -111.8214 184° South 254 292 8,300 1,740 Climbing Albuquerque Center
09:37PM 33.2611 -111.8567 202° Southwest 278 320 10,000 1,500 Climbing Albuquerque Center
09:38PM 33.2400 -111.9447 254° West 310 357 11,400 1,260 Climbing Albuquerque Center
09:39PM 33.2667 -112.0503 287° West 327 376 12,700 1,140 Climbing Albuquerque Center
09:40PM 33.2944 -112.1631 286° West 350 403 13,800 1,140 Climbing Albuquerque Center
09:41PM 33.3228 -112.2808 286° West 363 418 15,100 1,380 Climbing Albuquerque Center
09:42PM 33.3569 -112.4250 286° West 370 426 16,700 1,560 Climbing Albuquerque Center
09:43PM 33.3867 -112.5464 286° West 374 430 18,300 1,260 Climbing Albuquerque Center
09:44PM 33.4119 -112.6497 286° West 375 432 19,300 780 Climbing Albuquerque Center
09:45PM 33.4469 -112.7964 286° West 380 437 20,000 600 Climbing Albuquerque Center
09:46PM 33.4731 -112.9253 284° West 394 453 20,600 540 Climbing Albuquerque Center
09:47PM 33.4978 -113.0569 283° West 402 463 21,200 660 Climbing Albuquerque Center
09:48PM 33.5236 -113.1897 283° West 406 467 22,000 780 Climbing Albuquerque Center
09:49PM 33.5497 -113.3214 283° West 408 470 22,900 840 Climbing Albuquerque Center
09:50PM 33.5728 -113.4506 282° West 403 464 23,800 780 Climbing Albuquerque Center
09:51PM 33.5978 -113.5800 283° West 402 463 24,600 780 Climbing Albuquerque Center
09:52PM 33.6264 -113.7344 283° West 402 463 25,500 780 Climbing Albuquerque Center
09:53PM 33.6500 -113.8653 282° West 402 463 26,200 600 Climbing Albuquerque Center
09:54PM 33.6744 -113.9953 283° West 402 463 26,800 660 Climbing Albuquerque Center
09:55PM 33.6978 -114.1267 282° West 402 463 27,600 720 Climbing Albuquerque Center
09:56PM 33.7219 -114.2556 283° West 400 460 28,300 480 Climbing Albuquerque Center
09:57PM 33.7444 -114.3842 282° West 399 459 28,700 300 Climbing Albuquerque Center
09:58PM 33.7683 -114.5144 282° West 399 459 29,000 300 Climbing Albuquerque Center
09:59PM 33.8303 -114.6869 293° West 407 468 29,500 300 Climbing Los Angeles Center
10:01PM 33.8744 -114.8083 294° West 403 464 29,800 240 Climbing Los Angeles Center
10:02PM 33.9208 -114.9317 294° West 403 464 30,000 60 Climbing Los Angeles Center
10:03PM 33.9678 -115.0561 294° West 405 466 30,000  Level Los Angeles Center
10:04PM 34.0253 -115.2108 294° West 417 480 30,000  Level Los Angeles Center
10:05PM 34.0725 -115.3400 294° West 419 482 30,000 180 Level Los Angeles Center
10:06PM 34.1200 -115.4689 294° West 421 484 30,400 420 Climbing Los Angeles Center
10:07PM 34.1653 -115.5958 293° West 420 483 30,900 420 Climbing Los Angeles Center
10:08PM 34.2097 -115.7178 294° West 407 468 31,300 300 Climbing Los Angeles Center
10:09PM 34.2547 -115.8417 294° West 406 467 31,600 300 Climbing Los Angeles Center
10:10PM 34.3017 -115.9744 293° West 405 466 32,000 180 Climbing Los Angeles Center
10:11PM 34.3458 -116.0978 293° West 402 463 32,000  Level Los Angeles Center
10:12PM 34.3903 -116.2219 293° West 402 463 32,000  Level Los Angeles Center
10:13PM 34.4433 -116.3686 294° West 400 460 32,000  Level Los Angeles Center
10:14PM 34.4853 -116.4897 293° West 394 453 32,000  Level Los Angeles Center
10:15PM 34.5275 -116.6111 293° West 391 450 32,000  Level Los Angeles Center
10:16PM 34.5694 -116.7300 293° West 388 447 32,000  Level Los Angeles Center
10:18PM 34.6606 -116.9922 293° West 385 443 32,000  Level Los Angeles Center
10:19PM 34.7014 -117.1103 293° West 382 440 32,000  Level Los Angeles Center
10:20PM 34.7417 -117.2294 292° West 379 436 32,000  Level Los Angeles Center
10:21PM 34.7822 -117.3464 293° West 379 436 32,000  Level Los Angeles Center
10:22PM 34.8214 -117.4664 292° West 379 436 32,000  Level Los Angeles Center
10:23PM 34.8622 -117.5872 292° West 380 437 32,000  Level Los Angeles Center
10:24PM 34.9025 -117.7097 292° West 384 442 32,000  Level Los Angeles Center
10:25PM 34.9450 -117.8311 293° West 384 442 32,000  Level Los Angeles Center
10:26PM 34.9944 -117.9725 293° West 378 435 32,000  Level Los Angeles Center
10:27PM 35.0347 -118.0925 292° West 380 437 32,000  Level Los Angeles Center
10:28PM 35.0758 -118.2147 292° West 387 445 32,000  Level Los Angeles Center
10:29PM 35.1144 -118.3308 292° West 375 432 32,000  Level Los Angeles Center
10:31PM 35.1542 -118.4514 292° West 380 437 32,000  Level Los Angeles Center
10:32PM 35.2000 -118.5867 293° West 380 437 32,000  Level Los Angeles Center
10:33PM 35.2394 -118.7067 292° West 384 442 32,000  Level Los Angeles Center
10:34PM 35.2786 -118.8267 292° West 385 443 32,000  Level Los Angeles Center
10:35PM 35.3186 -118.9478 292° West 381 438 32,000  Level Los Angeles Center
10:36PM 35.3583 -119.0686 292° West 380 437 32,000  Level Los Angeles Center
10:37PM 35.4081 -119.2142 293° West 388 447 32,000  Level Los Angeles Center
10:38PM 35.4461 -119.3364 291° West 386 444 32,000  Level Los Angeles Center
10:39PM 35.4828 -119.4578 290° West 384 442 32,000  Level Los Angeles Center
10:40PM 35.5194 -119.5781 291° West 380 437 32,000  Level Los Angeles Center
10:41PM 35.5594 -119.6986 292° West 380 437 32,000  Level Los Angeles Center
10:42PM 35.6053 -119.8458 291° West 384 442 32,000  Level Los Angeles Center
10:43PM 35.6436 -119.9644 292° West 383 441 32,000  Level Los Angeles Center
10:44PM 35.6833 -120.0867 292° West 385 443 32,000  Level Los Angeles Center
10:45PM 35.7225 -120.2064 292° West 384 442 32,000  Level Los Angeles Center
10:46PM 35.7614 -120.3247 292° West 380 437 32,000  Level Los Angeles Center
10:47PM 35.8075 -120.4683 292° West 379 436 32,000  Level Los Angeles Center
10:48PM 35.8483 -120.5856 293° West 377 434 32,000  Level Los Angeles Center
10:49PM 35.9169 -120.6886 309° West 389 448 32,000  Level Oakland Center
10:50PM 36.0000 -120.8164 309° West 398 458 32,000  Level Oakland Center
10:51PM 36.0714 -120.9250 309° West 405 466 32,000  Level Oakland Center
10:52PM 36.1444 -121.0358 309° West 412 474 32,000  Level Oakland Center
10:53PM 36.2161 -121.1486 308° West 414 476 32,000 -420 Level Oakland Center
10:54PM 36.2919 -121.2622 310° West 424 488 31,200 -900 Descending Oakland Center
10:55PM 36.3678 -121.3808 308° West 435 501 30,200 -1,020 Descending Oakland Center
10:56PM 36.4425 -121.4961 309° West 434 499 29,200 -1,800 Descending Oakland Center
10:57PM 36.5144 -121.6056 309° West 418 481 26,600 -2,880 Descending Oakland Center
10:58PM 36.5964 -121.7333 309° West 399 459 23,400 -2,700 Descending Oakland Center
10:59PM 36.6564 -121.8258 309° West 385 443 21,100 -2,400 Descending Oakland Center
11:00PM 36.7217 -121.9269 309° West 381 438 18,600 -2,400 Descending Oakland Center
11:02PM 36.8103 -121.9822 333° Northwest 374 430 16,200 -2,520 Descending Oakland Center
11:03PM 36.9294 -122.0136 348° North 364 419 13,500 -2,340 Descending Oakland Center
11:04PM 37.0242 -122.0364 349° North 351 404 11,500 -1,500 Descending Oakland Center
11:05PM 37.1094 -122.0603 347° North 317 365 10,500 -840 Descending Oakland Center
11:06PM 37.1817 -122.0806 347° North 269 310 9,900 -600 Descending Oakland Center
11:07PM 37.2197 -122.1375 310° West 247 284 9,400 -840 Descending Oakland Center
11:08PM 37.2542 -122.2031 303° West 243 280 8,300 -1,200 Descending Oakland Center
11:09PM 37.3214 -122.2067 358° North 240 276 7,000 -1,320 Descending Oakland Center
11:10PM 37.3869 -122.2117 357° North 240 276 5,700 -1,380 Descending Oakland Center
11:11PM 37.4514 -122.2178 356° North 237 273 4,200 -1,080 Descending Oakland Center
11:12PM 37.5208 -122.1906 17° North 232 267 3,600 -840 Descending Oakland Center
11:13PM 37.5581 -122.2286 321° Northwest 206 237 2,600 -1,080 Descending Oakland Center
11:14PM 37.5744 -122.2731 295° West 161 185 1,500 -900 Descending Oakland Center
11:15PM 37.5928 -122.3156 299° West 147 169 800 -600 Descending Oakland Center
11:16PM 37.6108 -122.3586 298° West 139 160 300 -540 Descending Oakland Center
11:18PM 37.6167 -122.3667 322° Northwest  Level FlightAware Approximate